sensor_id;sensor_type;location;lat;lon;timestamp;pressure;altitude;pressure_sealevel;temperature;humidity
11347;BME280;5728;42.722;23.258;2023-04-16T00:00:42;94245.66;;;11.82;56.43
11347;BME280;5728;42.722;23.258;2023-04-16T00:03:09;94241.63;;;11.72;56.84
11347;BME280;5728;42.722;23.258;2023-04-16T00:05:35;94244.44;;;11.63;56.88
11347;BME280;5728;42.722;23.258;2023-04-16T00:08:02;94238.34;;;11.01;58.58
11347;BME280;5728;42.722;23.258;2023-04-16T00:10:30;94240.78;;;11.39;57.84
11347;BME280;5728;42.722;23.258;2023-04-16T00:12:57;94247.25;;;11.55;56.62
11347;BME280;5728;42.722;23.258;2023-04-16T00:15:24;94243.25;;;11.44;57.30
11347;BME280;5728;42.722;23.258;2023-04-16T00:17:51;94239.78;;;11.45;57.15
11347;BME280;5728;42.722;23.258;2023-04-16T00:20:18;94242.91;;;11.56;55.73
11347;BME280;5728;42.722;23.258;2023-04-16T00:22:45;94240.13;;;10.99;57.02
11347;BME280;5728;42.722;23.258;2023-04-16T00:25:12;94240.75;;;11.09;57.19
11347;BME280;5728;42.722;23.258;2023-04-16T00:27:40;94243.22;;;10.79;57.46
11347;BME280;5728;42.722;23.258;2023-04-16T00:30:08;94244.13;;;11.11;56.71
11347;BME280;5728;42.722;23.258;2023-04-16T00:32:35;94232.94;;;11.09;56.69
11347;BME280;5728;42.722;23.258;2023-04-16T00:35:01;94242.19;;;11.19;57.26
11347;BME280;5728;42.722;23.258;2023-04-16T00:37:29;94235.41;;;11.15;56.77
11347;BME280;5728;42.722;23.258;2023-04-16T00:39:55;94235.47;;;11.12;57.31
11347;BME280;5728;42.722;23.258;2023-04-16T00:42:22;94233.75;;;11.11;56.88
11347;BME280;5728;42.722;23.258;2023-04-16T00:44:50;94244.91;;;11.14;57.25
11347;BME280;5728;42.722;23.258;2023-04-16T00:47:18;94233.75;;;11.11;57.74
11347;BME280;5728;42.722;23.258;2023-04-16T00:49:45;94231.22;;;11.08;57.60
11347;BME280;5728;42.722;23.258;2023-04-16T00:52:12;94225.94;;;11.12;57.24
11347;BME280;5728;42.722;23.258;2023-04-16T00:54:39;94227.28;;;10.95;58.53
11347;BME280;5728;42.722;23.258;2023-04-16T00:57:06;94228.69;;;10.37;60.06
11347;BME280;5728;42.722;23.258;2023-04-16T00:59:33;94231.81;;;10.51;61.02
11347;BME280;5728;42.722;23.258;2023-04-16T01:02:01;94224.63;;;10.25;61.33
11347;BME280;5728;42.722;23.258;2023-04-16T01:04:28;94230.63;;;10.27;62.71
11347;BME280;5728;42.722;23.258;2023-04-16T01:06:55;94225.38;;;10.31;62.24
11347;BME280;5728;42.722;23.258;2023-04-16T01:09:22;94226.06;;;10.39;62.13
11347;BME280;5728;42.722;23.258;2023-04-16T01:11:49;94224.97;;;10.49;61.85
11347;BME280;5728;42.722;23.258;2023-04-16T01:14:15;94218.88;;;10.50;60.77
11347;BME280;5728;42.722;23.258;2023-04-16T01:16:42;94223.22;;;10.49;60.60
11347;BME280;5728;42.722;23.258;2023-04-16T01:19:10;94230.03;;;10.53;60.54
11347;BME280;5728;42.722;23.258;2023-04-16T01:21:38;94216.31;;;10.10;62.34
11347;BME280;5728;42.722;23.258;2023-04-16T01:24:05;94223.25;;;9.70;64.42
11347;BME280;5728;42.722;23.258;2023-04-16T01:26:32;94220.47;;;9.37;66.19
11347;BME280;5728;42.722;23.258;2023-04-16T01:28:59;94221.19;;;9.01;67.29
11347;BME280;5728;42.722;23.258;2023-04-16T01:31:26;94214.69;;;9.25;67.06
11347;BME280;5728;42.722;23.258;2023-04-16T01:33:52;94218.38;;;9.54;67.19
11347;BME280;5728;42.722;23.258;2023-04-16T01:36:19;94225.16;;;9.61;67.26
11347;BME280;5728;42.722;23.258;2023-04-16T01:38:47;94215.94;;;9.04;68.94
11347;BME280;5728;42.722;23.258;2023-04-16T01:41:14;94215.13;;;9.02;68.86
11347;BME280;5728;42.722;23.258;2023-04-16T01:43:41;94216.06;;;8.98;70.27
11347;BME280;5728;42.722;23.258;2023-04-16T01:46:13;94207.50;;;8.94;71.01
11347;BME280;5728;42.722;23.258;2023-04-16T01:48:40;94212.19;;;9.20;69.96
11347;BME280;5728;42.722;23.258;2023-04-16T01:51:07;94200.81;;;9.29;69.36
11347;BME280;5728;42.722;23.258;2023-04-16T01:53:34;94203.06;;;9.45;68.81
11347;BME280;5728;42.722;23.258;2023-04-16T01:56:02;94209.09;;;9.46;69.33
11347;BME280;5728;42.722;23.258;2023-04-16T01:58:30;94200.63;;;8.93;70.92
11347;BME280;5728;42.722;23.258;2023-04-16T02:00:57;94200.94;;;8.77;70.80
11347;BME280;5728;42.722;23.258;2023-04-16T02:03:24;94198.25;;;8.83;71.71
11347;BME280;5728;42.722;23.258;2023-04-16T02:05:51;94203.13;;;8.98;71.30
11347;BME280;5728;42.722;23.258;2023-04-16T02:08:18;94191.56;;;9.17;70.23
11347;BME280;5728;42.722;23.258;2023-04-16T02:10:45;94200.84;;;9.27;69.84
11347;BME280;5728;42.722;23.258;2023-04-16T02:13:14;94198.34;;;9.23;70.32
11347;BME280;5728;42.722;23.258;2023-04-16T02:15:44;94200.72;;;9.33;69.07
11347;BME280;5728;42.722;23.258;2023-04-16T02:18:11;94202.00;;;9.55;68.72
11347;BME280;5728;42.722;23.258;2023-04-16T02:20:39;94204.38;;;9.64;68.46
11347;BME280;5728;42.722;23.258;2023-04-16T02:23:06;94198.97;;;9.77;68.80
11347;BME280;5728;42.722;23.258;2023-04-16T02:25:37;94201.41;;;9.83;68.08
11347;BME280;5728;42.722;23.258;2023-04-16T02:28:05;94189.78;;;10.02;66.72
11347;BME280;5728;42.722;23.258;2023-04-16T02:30:34;94199.28;;;10.01;67.02
11347;BME280;5728;42.722;23.258;2023-04-16T02:33:01;94192.34;;;10.02;67.08
11347;BME280;5728;42.722;23.258;2023-04-16T02:35:29;94191.75;;;9.91;67.11
11347;BME280;5728;42.722;23.258;2023-04-16T02:37:56;94189.78;;;10.00;66.86
11347;BME280;5728;42.722;23.258;2023-04-16T02:40:23;94196.00;;;9.53;68.85
11347;BME280;5728;42.722;23.258;2023-04-16T02:42:50;94182.59;;;8.90;71.44
11347;BME280;5728;42.722;23.258;2023-04-16T02:45:16;94186.38;;;8.73;72.75
11347;BME280;5728;42.722;23.258;2023-04-16T02:47:44;94187.91;;;8.81;73.30
11347;BME280;5728;42.722;23.258;2023-04-16T02:50:11;94188.63;;;8.91;72.89
11347;BME280;5728;42.722;23.258;2023-04-16T02:52:38;94189.28;;;9.01;72.17
11347;BME280;5728;42.722;23.258;2023-04-16T02:55:05;94183.31;;;8.97;72.88
11347;BME280;5728;42.722;23.258;2023-04-16T02:57:32;94187.19;;;8.75;73.27
11347;BME280;5728;42.722;23.258;2023-04-16T02:59:59;94197.34;;;8.33;74.64
11347;BME280;5728;42.722;23.258;2023-04-16T03:02:26;94193.25;;;8.20;75.96
11347;BME280;5728;42.722;23.258;2023-04-16T03:04:54;94177.22;;;8.54;74.62
11347;BME280;5728;42.722;23.258;2023-04-16T03:07:21;94184.13;;;8.53;74.95
11347;BME280;5728;42.722;23.258;2023-04-16T03:09:47;94186.44;;;8.13;76.29
11347;BME280;5728;42.722;23.258;2023-04-16T03:12:14;94184.38;;;8.38;76.04
11347;BME280;5728;42.722;23.258;2023-04-16T03:14:41;94189.72;;;8.76;75.12
11347;BME280;5728;42.722;23.258;2023-04-16T03:17:08;94193.91;;;8.85;74.89
11347;BME280;5728;42.722;23.258;2023-04-16T03:19:35;94189.91;;;8.67;75.12
11347;BME280;5728;42.722;23.258;2023-04-16T03:22:03;94200.22;;;9.15;73.13
11347;BME280;5728;42.722;23.258;2023-04-16T03:24:30;94193.22;;;9.20;73.20
11347;BME280;5728;42.722;23.258;2023-04-16T03:26:57;94197.28;;;9.33;72.90
11347;BME280;5728;42.722;23.258;2023-04-16T03:29:23;94199.28;;;9.61;71.62
11347;BME280;5728;42.722;23.258;2023-04-16T03:31:51;94198.91;;;9.78;70.71
11347;BME280;5728;42.722;23.258;2023-04-16T03:34:17;94210.31;;;9.70;70.85
11347;BME280;5728;42.722;23.258;2023-04-16T03:36:44;94200.38;;;9.90;70.24
11347;BME280;5728;42.722;23.258;2023-04-16T03:39:12;94201.22;;;9.92;69.80
11347;BME280;5728;42.722;23.258;2023-04-16T03:41:39;94207.97;;;9.99;69.33
11347;BME280;5728;42.722;23.258;2023-04-16T03:44:06;94202.59;;;10.06;68.41
11347;BME280;5728;42.722;23.258;2023-04-16T03:46:32;94205.31;;;10.02;68.11
11347;BME280;5728;42.722;23.258;2023-04-16T03:48:59;94208.72;;;10.04;67.92
11347;BME280;5728;42.722;23.258;2023-04-16T03:51:26;94207.91;;;10.00;68.15
11347;BME280;5728;42.722;23.258;2023-04-16T03:53:54;94214.72;;;9.64;68.88
11347;BME280;5728;42.722;23.258;2023-04-16T03:56:22;94206.56;;;9.84;69.53
11347;BME280;5728;42.722;23.258;2023-04-16T03:58:48;94217.16;;;10.13;67.79
11347;BME280;5728;42.722;23.258;2023-04-16T04:01:15;94211.41;;;9.98;68.00
11347;BME280;5728;42.722;23.258;2023-04-16T04:03:42;94207.81;;;10.05;68.31
11347;BME280;5728;42.722;23.258;2023-04-16T04:06:08;94210.34;;;10.08;68.35
11347;BME280;5728;42.722;23.258;2023-04-16T04:08:35;94210.94;;;10.20;68.39
11347;BME280;5728;42.722;23.258;2023-04-16T04:11:02;94219.53;;;10.22;67.53
11347;BME280;5728;42.722;23.258;2023-04-16T04:13:31;94217.59;;;10.32;67.43
11347;BME280;5728;42.722;23.258;2023-04-16T04:15:57;94219.91;;;10.44;66.81
11347;BME280;5728;42.722;23.258;2023-04-16T04:18:24;94223.28;;;10.46;66.85
11347;BME280;5728;42.722;23.258;2023-04-16T04:20:51;94228.84;;;10.66;64.89
11347;BME280;5728;42.722;23.258;2023-04-16T04:23:17;94230.69;;;10.61;64.53
11347;BME280;5728;42.722;23.258;2023-04-16T04:25:44;94224.03;;;10.51;65.81
11347;BME280;5728;42.722;23.258;2023-04-16T04:28:11;94226.44;;;10.59;66.67
11347;BME280;5728;42.722;23.258;2023-04-16T04:30:40;94229.97;;;10.56;66.97
11347;BME280;5728;42.722;23.258;2023-04-16T04:33:07;94233.22;;;10.64;66.74
11347;BME280;5728;42.722;23.258;2023-04-16T04:35:34;94230.47;;;10.70;67.10
11347;BME280;5728;42.722;23.258;2023-04-16T04:38:01;94231.41;;;10.68;66.45
11347;BME280;5728;42.722;23.258;2023-04-16T04:40:28;94236.38;;;10.75;67.08
11347;BME280;5728;42.722;23.258;2023-04-16T04:42:55;94236.47;;;10.72;67.93
11347;BME280;5728;42.722;23.258;2023-04-16T04:45:22;94238.78;;;10.49;67.01
11347;BME280;5728;42.722;23.258;2023-04-16T04:47:51;94240.88;;;10.69;66.78
11347;BME280;5728;42.722;23.258;2023-04-16T04:50:18;94242.63;;;10.68;66.55
11347;BME280;5728;42.722;23.258;2023-04-16T04:52:45;94239.72;;;10.80;66.54
11347;BME280;5728;42.722;23.258;2023-04-16T04:55:11;94242.31;;;10.80;66.21
11347;BME280;5728;42.722;23.258;2023-04-16T04:57:40;94238.78;;;10.84;66.34
11347;BME280;5728;42.722;23.258;2023-04-16T05:00:07;94240.59;;;10.81;66.33
11347;BME280;5728;42.722;23.258;2023-04-16T05:02:34;94241.28;;;10.87;66.81
11347;BME280;5728;42.722;23.258;2023-04-16T05:05:02;94236.72;;;10.97;66.05
11347;BME280;5728;42.722;23.258;2023-04-16T05:07:29;94240.06;;;11.02;65.86
11347;BME280;5728;42.722;23.258;2023-04-16T05:09:56;94236.09;;;10.87;66.68
11347;BME280;5728;42.722;23.258;2023-04-16T05:12:22;94240.00;;;11.04;65.96
11347;BME280;5728;42.722;23.258;2023-04-16T05:14:49;94242.19;;;11.19;65.17
11347;BME280;5728;42.722;23.258;2023-04-16T05:17:16;94243.88;;;11.21;64.93
11347;BME280;5728;42.722;23.258;2023-04-16T05:19:42;94249.09;;;11.20;65.27
11347;BME280;5728;42.722;23.258;2023-04-16T05:22:10;94246.97;;;11.02;65.67
11347;BME280;5728;42.722;23.258;2023-04-16T05:24:37;94245.13;;;11.07;66.23
11347;BME280;5728;42.722;23.258;2023-04-16T05:27:04;94241.00;;;11.32;64.43
11347;BME280;5728;42.722;23.258;2023-04-16T05:29:31;94249.34;;;10.75;65.11
11347;BME280;5728;42.722;23.258;2023-04-16T05:31:57;94239.94;;;11.07;64.87
11347;BME280;5728;42.722;23.258;2023-04-16T05:34:24;94247.06;;;10.99;64.93
11347;BME280;5728;42.722;23.258;2023-04-16T05:36:51;94239.38;;;10.94;65.39
11347;BME280;5728;42.722;23.258;2023-04-16T05:39:19;94235.63;;;11.06;65.61
11347;BME280;5728;42.722;23.258;2023-04-16T05:41:45;94234.47;;;11.17;65.53
11347;BME280;5728;42.722;23.258;2023-04-16T05:44:12;94234.09;;;10.99;64.80
11347;BME280;5728;42.722;23.258;2023-04-16T05:46:40;94232.81;;;11.13;64.08
11347;BME280;5728;42.722;23.258;2023-04-16T05:49:06;94239.47;;;11.25;63.69
11347;BME280;5728;42.722;23.258;2023-04-16T05:51:33;94240.66;;;11.44;62.92
11347;BME280;5728;42.722;23.258;2023-04-16T05:54:00;94245.63;;;11.51;63.24
11347;BME280;5728;42.722;23.258;2023-04-16T05:56:28;94242.47;;;11.40;61.89
11347;BME280;5728;42.722;23.258;2023-04-16T05:58:55;94244.03;;;11.47;61.52
11347;BME280;5728;42.722;23.258;2023-04-16T06:01:22;94241.78;;;11.34;61.96
11347;BME280;5728;42.722;23.258;2023-04-16T06:03:49;94247.25;;;11.55;61.59
11347;BME280;5728;42.722;23.258;2023-04-16T06:06:15;94240.72;;;11.73;60.73
11347;BME280;5728;42.722;23.258;2023-04-16T06:08:42;94239.78;;;11.76;61.25
11347;BME280;5728;42.722;23.258;2023-04-16T06:11:09;94238.31;;;11.96;61.30
11347;BME280;5728;42.722;23.258;2023-04-16T06:13:38;94236.66;;;12.23;58.94
11347;BME280;5728;42.722;23.258;2023-04-16T06:16:05;94251.13;;;12.32;59.44
11347;BME280;5728;42.722;23.258;2023-04-16T06:18:32;94241.19;;;12.16;59.50
11347;BME280;5728;42.722;23.258;2023-04-16T06:20:58;94240.47;;;12.41;58.64
11347;BME280;5728;42.722;23.258;2023-04-16T06:23:25;94248.84;;;12.49;58.30
11347;BME280;5728;42.722;23.258;2023-04-16T06:25:52;94237.00;;;12.66;58.21
11347;BME280;5728;42.722;23.258;2023-04-16T06:28:19;94244.78;;;12.68;58.00
11347;BME280;5728;42.722;23.258;2023-04-16T06:30:47;94236.75;;;12.74;57.95
11347;BME280;5728;42.722;23.258;2023-04-16T06:33:14;94236.00;;;12.98;57.85
11347;BME280;5728;42.722;23.258;2023-04-16T06:35:40;94233.66;;;12.89;57.84
11347;BME280;5728;42.722;23.258;2023-04-16T06:38:07;94230.69;;;12.75;58.03
11347;BME280;5728;42.722;23.258;2023-04-16T06:40:34;94230.69;;;12.75;58.67
11347;BME280;5728;42.722;23.258;2023-04-16T06:43:02;94234.47;;;13.19;57.34
11347;BME280;5728;42.722;23.258;2023-04-16T06:45:28;94236.91;;;13.48;56.98
11347;BME280;5728;42.722;23.258;2023-04-16T06:47:56;94238.00;;;13.66;56.39
11347;BME280;5728;42.722;23.258;2023-04-16T06:50:24;94242.56;;;13.84;55.86
11347;BME280;5728;42.722;23.258;2023-04-16T06:52:52;94229.75;;;14.01;54.90
11347;BME280;5728;42.722;23.258;2023-04-16T06:55:19;94238.25;;;14.06;55.22
11347;BME280;5728;42.722;23.258;2023-04-16T06:57:45;94250.16;;;14.36;54.92
11347;BME280;5728;42.722;23.258;2023-04-16T07:00:12;94233.31;;;14.66;54.45
11347;BME280;5728;42.722;23.258;2023-04-16T07:02:39;94230.88;;;14.84;53.86
11347;BME280;5728;42.722;23.258;2023-04-16T07:05:08;94225.81;;;15.01;52.82
11347;BME280;5728;42.722;23.258;2023-04-16T07:07:34;94230.66;;;14.90;53.19
11347;BME280;5728;42.722;23.258;2023-04-16T07:10:01;94231.66;;;14.86;53.39
11347;BME280;5728;42.722;23.258;2023-04-16T07:12:29;94229.13;;;14.41;54.56
11347;BME280;5728;42.722;23.258;2023-04-16T07:14:56;94234.69;;;14.97;53.70
11347;BME280;5728;42.722;23.258;2023-04-16T07:17:23;94239.31;;;14.68;53.50
11347;BME280;5728;42.722;23.258;2023-04-16T07:19:50;94243.00;;;14.18;55.68
11347;BME280;5728;42.722;23.258;2023-04-16T07:22:18;94237.72;;;14.43;55.45
11347;BME280;5728;42.722;23.258;2023-04-16T07:24:45;94233.84;;;14.53;54.97
11347;BME280;5728;42.722;23.258;2023-04-16T07:27:12;94240.28;;;13.98;56.43
11347;BME280;5728;42.722;23.258;2023-04-16T07:29:38;94231.31;;;14.05;56.56
11347;BME280;5728;42.722;23.258;2023-04-16T07:32:06;94237.28;;;14.08;57.27
11347;BME280;5728;42.722;23.258;2023-04-16T07:34:32;94230.66;;;14.00;57.66
11347;BME280;5728;42.722;23.258;2023-04-16T07:36:59;94226.81;;;14.33;56.82
11347;BME280;5728;42.722;23.258;2023-04-16T07:39:27;94230.47;;;14.28;56.36
11347;BME280;5728;42.722;23.258;2023-04-16T07:41:54;94232.34;;;14.47;56.75
11347;BME280;5728;42.722;23.258;2023-04-16T07:44:21;94236.66;;;14.48;56.94
11347;BME280;5728;42.722;23.258;2023-04-16T07:46:48;94237.34;;;15.17;55.30
11347;BME280;5728;42.722;23.258;2023-04-16T07:49:14;94224.81;;;15.25;54.40
11347;BME280;5728;42.722;23.258;2023-04-16T07:51:41;94228.25;;;15.47;54.63
11347;BME280;5728;42.722;23.258;2023-04-16T07:54:09;94229.84;;;15.29;53.95
11347;BME280;5728;42.722;23.258;2023-04-16T07:56:37;94233.47;;;15.67;53.43
11347;BME280;5728;42.722;23.258;2023-04-16T07:59:03;94224.84;;;15.65;52.51
11347;BME280;5728;42.722;23.258;2023-04-16T08:01:31;94221.50;;;15.82;52.58
11347;BME280;5728;42.722;23.258;2023-04-16T08:03:58;94232.66;;;15.85;52.39
11347;BME280;5728;42.722;23.258;2023-04-16T08:06:25;94229.84;;;16.09;51.93
11347;BME280;5728;42.722;23.258;2023-04-16T08:08:52;94234.66;;;15.99;52.08
11347;BME280;5728;42.722;23.258;2023-04-16T08:11:18;94231.22;;;15.78;53.02
11347;BME280;5728;42.722;23.258;2023-04-16T08:13:46;94219.97;;;16.34;52.35
11347;BME280;5728;42.722;23.258;2023-04-16T08:16:13;94221.53;;;16.38;51.84
11347;BME280;5728;42.722;23.258;2023-04-16T08:18:40;94229.13;;;16.98;50.84
11347;BME280;5728;42.722;23.258;2023-04-16T08:21:07;94227.28;;;17.53;49.70
11347;BME280;5728;42.722;23.258;2023-04-16T08:23:34;94214.53;;;17.63;48.75
11347;BME280;5728;42.722;23.258;2023-04-16T08:26:01;94214.81;;;18.24;47.50
11347;BME280;5728;42.722;23.258;2023-04-16T08:28:28;94211.63;;;18.66;46.81
11347;BME280;5728;42.722;23.258;2023-04-16T08:30:56;94210.88;;;18.15;46.39
11347;BME280;5728;42.722;23.258;2023-04-16T08:33:23;94219.44;;;17.86;47.73
11347;BME280;5728;42.722;23.258;2023-04-16T08:35:49;94208.53;;;17.61;47.40
11347;BME280;5728;42.722;23.258;2023-04-16T08:38:16;94204.72;;;17.83;47.89
11347;BME280;5728;42.722;23.258;2023-04-16T08:40:44;94196.97;;;17.98;47.60
11347;BME280;5728;42.722;23.258;2023-04-16T08:43:11;94197.94;;;17.79;47.63
11347;BME280;5728;42.722;23.258;2023-04-16T08:45:40;94196.44;;;17.91;47.42
11347;BME280;5728;42.722;23.258;2023-04-16T08:48:10;94198.19;;;17.58;48.27
11347;BME280;5728;42.722;23.258;2023-04-16T08:50:37;94196.88;;;17.66;48.19
11347;BME280;5728;42.722;23.258;2023-04-16T08:53:05;94195.69;;;17.89;47.73
11347;BME280;5728;42.722;23.258;2023-04-16T08:55:36;94189.06;;;17.82;47.90
11347;BME280;5728;42.722;23.258;2023-04-16T08:58:07;94190.59;;;18.34;46.72
11347;BME280;5728;42.722;23.258;2023-04-16T09:00:36;94184.19;;;18.87;45.07
11347;BME280;5728;42.722;23.258;2023-04-16T09:03:03;94177.06;;;18.73;44.45
11347;BME280;5728;42.722;23.258;2023-04-16T09:05:32;94186.88;;;18.38;45.10
11347;BME280;5728;42.722;23.258;2023-04-16T09:07:59;94182.81;;;18.17;46.24
11347;BME280;5728;42.722;23.258;2023-04-16T09:10:25;94177.03;;;18.26;45.41
11347;BME280;5728;42.722;23.258;2023-04-16T09:12:54;94177.03;;;18.26;44.77
11347;BME280;5728;42.722;23.258;2023-04-16T09:15:21;94179.91;;;18.06;44.87
11347;BME280;5728;42.722;23.258;2023-04-16T09:17:48;94185.16;;;18.06;44.83
11347;BME280;5728;42.722;23.258;2023-04-16T09:20:15;94183.50;;;18.36;44.92
11347;BME280;5728;42.722;23.258;2023-04-16T09:22:43;94195.34;;;17.62;46.07
11347;BME280;5728;42.722;23.258;2023-04-16T09:25:10;94187.72;;;17.58;45.89
11347;BME280;5728;42.722;23.258;2023-04-16T09:27:37;94176.56;;;17.70;45.50
11347;BME280;5728;42.722;23.258;2023-04-16T09:30:18;94181.03;;;17.85;45.82
11347;BME280;5728;42.722;23.258;2023-04-16T09:32:46;94176.56;;;18.03;44.32
11347;BME280;5728;42.722;23.258;2023-04-16T09:35:13;94183.75;;;17.83;45.09
11347;BME280;5728;42.722;23.258;2023-04-16T09:37:40;94177.69;;;17.99;44.48
11347;BME280;5728;42.722;23.258;2023-04-16T09:40:08;94189.06;;;18.15;44.54
11347;BME280;5728;42.722;23.258;2023-04-16T09:42:35;94179.50;;;18.29;43.26
11347;BME280;5728;42.722;23.258;2023-04-16T09:45:03;94172.97;;;18.21;42.70
11347;BME280;5728;42.722;23.258;2023-04-16T09:47:38;94173.03;;;18.68;42.64
11347;BME280;5728;42.722;23.258;2023-04-16T09:50:06;94177.41;;;18.83;42.67
11347;BME280;5728;42.722;23.258;2023-04-16T09:52:35;94173.41;;;19.21;42.37
11347;BME280;5728;42.722;23.258;2023-04-16T09:55:03;94175.19;;;19.66;41.05
11347;BME280;5728;42.722;23.258;2023-04-16T09:57:32;94172.00;;;20.17;38.38
11347;BME280;5728;42.722;23.258;2023-04-16T10:00:01;94165.69;;;20.48;37.87
11347;BME280;5728;42.722;23.258;2023-04-16T10:02:29;94159.38;;;20.91;37.68
11347;BME280;5728;42.722;23.258;2023-04-16T10:05:00;94154.78;;;20.81;37.29
11347;BME280;5728;42.722;23.258;2023-04-16T10:07:28;94155.94;;;20.36;38.52
11347;BME280;5728;42.722;23.258;2023-04-16T10:09:55;94152.56;;;20.06;37.63
11347;BME280;5728;42.722;23.258;2023-04-16T10:12:23;94145.84;;;20.14;39.09
11347;BME280;5728;42.722;23.258;2023-04-16T10:14:52;94148.41;;;20.44;37.73
11347;BME280;5728;42.722;23.258;2023-04-16T10:17:20;94142.59;;;20.39;36.66
11347;BME280;5728;42.722;23.258;2023-04-16T10:19:48;94148.69;;;19.97;37.59
11347;BME280;5728;42.722;23.258;2023-04-16T10:22:16;94146.44;;;19.91;38.02
11347;BME280;5728;42.722;23.258;2023-04-16T10:24:43;94144.81;;;19.60;38.68
11347;BME280;5728;42.722;23.258;2023-04-16T10:27:10;94141.06;;;19.21;39.49
11347;BME280;5728;42.722;23.258;2023-04-16T10:29:37;94139.75;;;18.98;39.77
11347;BME280;5728;42.722;23.258;2023-04-16T10:32:06;94129.94;;;18.86;40.03
11347;BME280;5728;42.722;23.258;2023-04-16T10:34:34;94129.72;;;18.75;41.40
11347;BME280;5728;42.722;23.258;2023-04-16T10:37:01;94132.63;;;19.30;40.24
11347;BME280;5728;42.722;23.258;2023-04-16T10:39:28;94122.66;;;19.79;39.99
11347;BME280;5728;42.722;23.258;2023-04-16T10:42:06;94117.78;;;20.01;39.59
11347;BME280;5728;42.722;23.258;2023-04-16T10:44:33;94115.50;;;19.66;38.78
11347;BME280;5728;42.722;23.258;2023-04-16T10:47:00;94118.44;;;19.76;38.49
11347;BME280;5728;42.722;23.258;2023-04-16T10:49:28;94130.94;;;19.58;39.38
11347;BME280;5728;42.722;23.258;2023-04-16T10:51:56;94135.44;;;19.99;39.21
11347;BME280;5728;42.722;23.258;2023-04-16T10:54:25;94126.06;;;20.50;39.26
11347;BME280;5728;42.722;23.258;2023-04-16T10:56:53;94125.94;;;20.24;39.25
11347;BME280;5728;42.722;23.258;2023-04-16T10:59:22;94130.53;;;20.49;38.85
11347;BME280;5728;42.722;23.258;2023-04-16T11:01:51;94124.09;;;20.53;38.54
11347;BME280;5728;42.722;23.258;2023-04-16T11:04:28;94110.84;;;20.81;38.71
11347;BME280;5728;42.722;23.258;2023-04-16T11:07:06;94117.78;;;20.82;38.65
11347;BME280;5728;42.722;23.258;2023-04-16T11:09:55;94109.75;;;21.50;38.36
11347;BME280;5728;42.722;23.258;2023-04-16T11:12:25;94105.22;;;21.77;37.68
11347;BME280;5728;42.722;23.258;2023-04-16T11:14:57;94100.25;;;22.10;36.07
11347;BME280;5728;42.722;23.258;2023-04-16T11:17:28;94098.16;;;22.52;35.75
11347;BME280;5728;42.722;23.258;2023-04-16T11:19:57;94090.09;;;22.30;35.59
11347;BME280;5728;42.722;23.258;2023-04-16T11:22:24;94095.78;;;22.23;35.84
11347;BME280;5728;42.722;23.258;2023-04-16T11:24:53;94085.72;;;21.92;36.19
11347;BME280;5728;42.722;23.258;2023-04-16T11:27:20;94087.81;;;20.71;38.09
11347;BME280;5728;42.722;23.258;2023-04-16T11:29:55;94083.34;;;20.59;38.27
11347;BME280;5728;42.722;23.258;2023-04-16T11:32:22;94077.84;;;21.28;38.21
11347;BME280;5728;42.722;23.258;2023-04-16T11:34:49;94074.38;;;21.40;38.58
11347;BME280;5728;42.722;23.258;2023-04-16T11:37:20;94074.09;;;21.57;37.73
11347;BME280;5728;42.722;23.258;2023-04-16T11:39:49;94074.50;;;21.76;39.42
11347;BME280;5728;42.722;23.258;2023-04-16T11:42:19;94065.75;;;21.50;37.73
11347;BME280;5728;42.722;23.258;2023-04-16T11:44:51;94069.81;;;20.77;38.46
11347;BME280;5728;42.722;23.258;2023-04-16T11:47:18;94056.44;;;20.80;38.39
11347;BME280;5728;42.722;23.258;2023-04-16T11:49:45;94057.59;;;20.76;39.33
11347;BME280;5728;42.722;23.258;2023-04-16T11:52:12;94060.34;;;20.87;38.71
11347;BME280;5728;42.722;23.258;2023-04-16T11:54:40;94057.59;;;20.50;39.04
11347;BME280;5728;42.722;23.258;2023-04-16T11:57:07;94051.41;;;21.02;38.37
11347;BME280;5728;42.722;23.258;2023-04-16T11:59:33;94053.25;;;20.75;38.92
11347;BME280;5728;42.722;23.258;2023-04-16T12:02:01;94049.75;;;20.35;39.10
11347;BME280;5728;42.722;23.258;2023-04-16T12:04:28;94041.34;;;20.02;39.85
11347;BME280;5728;42.722;23.258;2023-04-16T12:07:05;94041.69;;;20.24;40.24
11347;BME280;5728;42.722;23.258;2023-04-16T12:09:32;94043.72;;;19.93;40.18
11347;BME280;5728;42.722;23.258;2023-04-16T12:12:02;94030.22;;;19.70;40.23
11347;BME280;5728;42.722;23.258;2023-04-16T12:14:29;94029.44;;;19.83;40.27
11347;BME280;5728;42.722;23.258;2023-04-16T12:17:01;94020.03;;;19.93;40.86
11347;BME280;5728;42.722;23.258;2023-04-16T12:19:47;94015.63;;;19.79;40.35
11347;BME280;5728;42.722;23.258;2023-04-16T12:22:14;94015.91;;;20.29;39.99
11347;BME280;5728;42.722;23.258;2023-04-16T12:24:41;94012.59;;;20.40;38.89
11347;BME280;5728;42.722;23.258;2023-04-16T12:27:09;94016.19;;;20.78;38.20
11347;BME280;5728;42.722;23.258;2023-04-16T12:29:36;94013.44;;;21.32;37.27
11347;BME280;5728;42.722;23.258;2023-04-16T12:32:03;94014.97;;;21.72;37.07
11347;BME280;5728;42.722;23.258;2023-04-16T12:34:30;94012.31;;;20.57;38.58
11347;BME280;5728;42.722;23.258;2023-04-16T12:37:05;94009.88;;;19.87;39.82
11347;BME280;5728;42.722;23.258;2023-04-16T12:39:33;94003.63;;;20.16;39.52
11347;BME280;5728;42.722;23.258;2023-04-16T12:42:00;93999.22;;;20.02;39.66
11347;BME280;5728;42.722;23.258;2023-04-16T12:44:29;94000.91;;;20.44;39.55
11347;BME280;5728;42.722;23.258;2023-04-16T12:46:56;93999.41;;;20.40;39.37
11347;BME280;5728;42.722;23.258;2023-04-16T12:49:23;93997.09;;;19.95;39.88
11347;BME280;5728;42.722;23.258;2023-04-16T12:51:50;93996.78;;;19.58;41.03
11347;BME280;5728;42.722;23.258;2023-04-16T12:54:16;94004.66;;;19.72;40.13
11347;BME280;5728;42.722;23.258;2023-04-16T12:56:43;93992.25;;;19.32;41.20
11347;BME280;5728;42.722;23.258;2023-04-16T12:59:10;93994.69;;;18.93;42.68
11347;BME280;5728;42.722;23.258;2023-04-16T13:01:38;93984.72;;;19.26;42.35
11347;BME280;5728;42.722;23.258;2023-04-16T13:04:04;93988.06;;;18.72;43.82